Time;durP1;ratioP1;P1;durP2;ratioP2;P2;SDS_P1;SDS_P2;PMS_P1;PMS_P2;Temp;Humidity;BMP_temperature;BMP_pressure;BME280_temperature;BME280_humidity;BME280_pressure;Samples;Min_cycle;Max_cycle;Signal;HPM_P1;HPM_P2
2022/03/31 00:00:40;;;;;;;33.58;6.43;;;;;;;16.11;35.98;93896.38;5056350;28;20028;-80
2022/03/31 00:03:06;;;;;;;;;;;;;;;16.16;35.85;93896.28;5058081;28;20048;-80
2022/03/31 00:05:32;;;;;;;23.33;7.40;;;;;;;15.97;35.55;93887.69;5056955;28;19917;-79
2022/03/31 00:07:58;;;;;;;29.25;8.05;;;;;;;15.99;35.52;93885.56;5073762;28;20033;-80
2022/03/31 00:10:28;;;;;;;34.30;6.70;;;;;;;15.98;35.91;93894.50;5031053;28;20033;-78
2022/03/31 00:12:54;;;;;;;23.63;6.80;;;;;;;16.02;35.44;93890.22;5058780;28;20025;-80
2022/03/31 00:15:21;;;;;;;36.00;8.02;;;;;;;16.04;35.27;93895.94;5040248;28;20067;-80
2022/03/31 00:17:46;;;;;;;38.40;7.35;;;;;;;16.05;35.21;93900.13;5041638;28;20120;-80
2022/03/31 00:20:12;;;;;;;30.92;7.18;;;;;;;16.00;35.63;93905.47;5032717;28;20044;-79
2022/03/31 00:22:38;;;;;;;32.05;7.70;;;;;;;16.05;35.48;93915.09;5049390;28;20046;-79
2022/03/31 00:25:05;;;;;;;27.50;7.03;;;;;;;16.12;35.34;93902.41;5039877;28;20030;-79
2022/03/31 00:27:31;;;;;;;39.38;9.20;;;;;;;16.14;35.46;93901.03;5055036;28;20036;-80
2022/03/31 00:29:56;;;;;;;30.95;7.70;;;;;;;16.17;35.45;93884.72;5020085;28;20025;-80
2022/03/31 00:32:22;;;;;;;35.33;6.68;;;;;;;16.23;35.47;93897.72;5037391;28;20064;-80
2022/03/31 00:34:48;;;;;;;31.63;9.20;;;;;;;16.26;35.57;93891.91;5043990;28;20029;-79
2022/03/31 00:37:13;;;;;;;23.90;6.18;;;;;;;16.30;35.37;93866.66;5064421;28;20381;-79
2022/03/31 00:39:39;;;;;;;33.70;6.53;;;;;;;16.34;35.36;93867.63;5042369;28;20037;-80
2022/03/31 00:42:06;;;;;;;44.60;8.73;;;;;;;16.28;35.63;93847.81;5037866;28;20044;-80
2022/03/31 00:44:31;;;;;;;30.50;6.65;;;;;;;16.15;36.08;93854.59;5052989;28;20037;-79
2022/03/31 00:46:57;;;;;;;30.00;5.88;;;;;;;16.22;36.10;93862.84;5040444;28;20030;-79
2022/03/31 00:49:23;;;;;;;30.33;7.00;;;;;;;16.27;35.89;93864.59;5031221;28;20473;-79
2022/03/31 00:51:49;;;;;;;44.53;7.45;;;;;;;16.23;36.06;93871.50;5043699;28;20052;-80
2022/03/31 00:54:15;;;;;;;37.88;6.47;;;;;;;16.21;35.86;93896.19;5053409;28;20048;-79
2022/03/31 00:56:40;;;;;;;24.95;6.97;;;;;;;16.23;35.86;93885.41;5053232;28;20029;-79
2022/03/31 00:59:06;;;;;;;39.58;6.15;;;;;;;16.26;36.32;93870.91;5035916;28;20083;-79
2022/03/31 01:01:35;;;;;;;40.00;6.28;;;;;;;16.26;36.43;93858.59;5036095;28;20685;-79
2022/03/31 01:04:01;;;;;;;25.80;7.43;;;;;;;16.18;36.95;93848.78;5018848;28;20127;-80
2022/03/31 01:06:26;;;;;;;24.70;6.25;;;;;;;16.10;37.09;93859.91;5019498;28;20036;-79
2022/03/31 01:08:52;;;;;;;32.78;6.50;;;;;;;16.07;37.05;93858.66;5036951;28;20052;-80
2022/03/31 01:11:18;;;;;;;28.50;6.18;;;;;;;15.86;37.75;93857.44;5036279;28;20029;-79
2022/03/31 01:13:45;;;;;;;24.10;6.15;;;;;;;15.86;37.82;93846.97;5038233;28;20025;-80
2022/03/31 01:16:10;;;;;;;32.63;7.05;;;;;;;15.93;37.65;93857.84;5035548;28;20029;-80
2022/03/31 01:18:36;;;;;;;33.88;6.32;;;;;;;15.96;38.16;93846.81;5037113;28;20576;-79
2022/03/31 01:21:01;;;;;;;35.92;5.75;;;;;;;15.85;38.45;93829.69;5043548;28;20082;-79
2022/03/31 01:23:27;;;;;;;36.50;6.72;;;;;;;15.90;38.42;93832.22;5069276;28;20243;-78
2022/03/31 01:25:52;;;;;;;34.65;6.40;;;;;;;15.82;38.62;93830.25;5063879;28;20041;-80
2022/03/31 01:28:18;;;;;;;31.17;7.30;;;;;;;15.90;38.40;93847.94;5039192;28;20040;-80
2022/03/31 01:30:44;;;;;;;36.65;6.80;;;;;;;15.94;38.05;93848.91;5055663;28;20070;-80
2022/03/31 01:33:10;;;;;;;35.85;6.80;;;;;;;15.99;38.18;93856.72;5054984;28;20029;-80
2022/03/31 01:35:36;;;;;;;29.02;6.07;;;;;;;15.95;38.36;93850.50;5055593;28;20025;-79
2022/03/31 01:38:01;;;;;;;43.00;6.75;;;;;;;15.96;38.22;93862.53;5056972;28;20021;-80
2022/03/31 01:40:27;;;;;;;41.95;7.50;;;;;;;15.86;38.35;93844.34;5072172;28;20060;-79
2022/03/31 01:42:52;;;;;;;34.92;6.28;;;;;;;15.44;38.96;93830.28;5055464;28;20039;-79
2022/03/31 01:45:18;;;;;;;44.92;5.75;;;;;;;15.26;41.22;93839.72;5036178;28;20029;-80
2022/03/31 01:47:44;;;;;;;32.00;6.13;;;;;;;15.34;39.92;93834.91;5035597;28;20095;-79
2022/03/31 01:50:10;;;;;;;26.98;7.20;;;;;;;15.13;39.52;93840.47;5018751;28;20103;-80
2022/03/31 01:52:36;;;;;;;27.33;6.15;;;;;;;15.18;39.86;93857.94;5019491;28;20461;-80
2022/03/31 01:55:03;;;;;;;30.20;6.57;;;;;;;15.09;40.17;93851.75;5020253;28;20025;-79
2022/03/31 01:57:28;;;;;;;35.50;7.05;;;;;;;15.00;39.91;93843.78;5037723;28;20063;-80
2022/03/31 01:59:54;;;;;;;29.60;6.13;;;;;;;14.73;40.42;93836.53;5045502;28;20041;-79
2022/03/31 02:02:20;;;;;;;27.20;6.38;;;;;;;14.63;40.69;93847.09;5029414;28;20048;-80
2022/03/31 02:04:46;;;;;;;35.25;8.40;;;;;;;14.56;41.09;93829.13;5041282;28;20044;-79
2022/03/31 02:07:11;;;;;;;37.25;6.55;;;;;;;14.59;40.53;93840.88;5033407;28;20038;-80
2022/03/31 02:09:37;;;;;;;36.72;6.47;;;;;;;14.68;40.43;93844.44;5036356;28;20041;-82
2022/03/31 02:12:03;;;;;;;41.13;7.30;;;;;;;14.70;40.83;93848.34;5036150;28;20041;-80
2022/03/31 02:14:29;;;;;;;30.60;7.38;;;;;;;14.77;40.30;93841.97;5042186;28;20045;-80
2022/03/31 02:16:58;;;;;;;36.05;7.13;;;;;;;14.69;40.45;93827.69;5036136;28;20044;-80
2022/03/31 02:19:24;;;;;;;17.17;6.57;;;;;;;14.73;40.25;93828.66;5034329;28;20036;-79
2022/03/31 02:21:50;;;;;;;42.30;9.15;;;;;;;14.71;40.09;93817.72;5038107;28;20417;-79
2022/03/31 02:24:15;;;;;;;21.50;7.05;;;;;;;14.63;40.34;93798.16;5039504;28;20036;-78
2022/03/31 02:26:41;;;;;;;24.88;7.28;;;;;;;14.52;40.67;93802.00;5017404;28;20088;-80
2022/03/31 02:29:07;;;;;;;38.13;7.00;;;;;;;14.53;40.12;93808.78;5018383;28;20030;-78
2022/03/31 02:31:32;;;;;;;23.20;6.65;;;;;;;14.48;40.21;93810.66;5050410;28;20036;-78
2022/03/31 02:33:58;;;;;;;32.28;6.70;;;;;;;14.52;40.20;93811.66;5033605;28;20029;-79
2022/03/31 02:36:25;;;;;;;27.40;6.53;;;;;;;14.37;40.59;93829.06;5050597;28;20032;-78
2022/03/31 02:38:50;;;;;;;41.72;8.52;;;;;;;14.33;40.66;93822.06;5032873;28;20026;-80
2022/03/31 02:41:16;;;;;;;38.65;9.02;;;;;;;14.42;40.32;93815.16;5034563;28;20076;-79
2022/03/31 02:43:42;;;;;;;40.30;8.13;;;;;;;14.45;40.45;93809.38;5035701;28;20021;-79
2022/03/31 02:46:08;;;;;;;28.42;6.53;;;;;;;14.47;40.57;93816.94;5050922;28;20045;-80
2022/03/31 02:48:33;;;;;;;46.08;6.78;;;;;;;14.29;41.21;93818.44;5034413;28;20017;-80
2022/03/31 02:50:59;;;;;;;53.58;9.38;;;;;;;14.19;41.65;93811.50;5050668;28;20087;-80
2022/03/31 02:56:09;;;;;;;35.45;7.55;;;;;;;13.85;41.98;93811.56;5048470;28;20479;-80
2022/03/31 02:58:34;;;;;;;19.50;6.78;;;;;;;13.65;42.16;93817.75;5035070;28;20059;-80
2022/03/31 03:01:02;;;;;;;29.42;7.85;;;;;;;13.49;43.08;93814.47;5035510;28;20029;-79
2022/03/31 03:03:29;;;;;;;34.25;8.02;;;;;;;13.36;42.65;93822.19;5034106;28;20037;-80
2022/03/31 03:05:55;;;;;;;31.60;6.35;;;;;;;13.24;43.01;93819.13;5017145;28;20033;-78
2022/03/31 03:08:20;;;;;;;27.55;7.20;;;;;;;13.35;42.94;93831.84;5033806;28;20032;-78
2022/03/31 03:10:46;;;;;;;26.10;6.35;;;;;;;13.49;42.66;93835.38;5037100;28;20056;-79
2022/03/31 03:13:13;;;;;;;27.40;6.95;;;;;;;13.61;42.59;93824.56;5054474;28;20060;-79
2022/03/31 03:15:38;;;;;;;33.17;6.70;;;;;;;13.62;42.37;93826.13;5041948;28;20040;-78
2022/03/31 03:18:04;;;;;;;25.25;7.53;;;;;;;13.65;42.70;93828.19;5021873;28;20033;-79
2022/03/31 03:20:32;;;;;;;29.40;6.32;;;;;;;13.67;42.26;93826.13;5038398;28;20029;-79
2022/03/31 03:22:58;;;;;;;27.98;7.35;;;;;;;13.50;42.70;93817.88;5057470;28;20503;-80
2022/03/31 03:25:24;;;;;;;20.23;6.32;;;;;;;13.40;42.79;93823.19;5047648;28;20021;-79
2022/03/31 03:27:57;;;;;;;31.15;7.88;;;;;;;13.36;43.16;93814.34;5049825;28;20060;-79
2022/03/31 03:30:23;;;;;;;30.02;7.05;;;;;;;13.28;43.33;93812.31;5051507;28;20056;-79
2022/03/31 03:32:48;;;;;;;21.38;5.90;;;;;;;13.33;43.39;93827.94;5062395;28;20100;-79
2022/03/31 03:35:14;;;;;;;33.83;7.40;;;;;;;13.34;43.35;93816.44;5024273;28;20033;-79
2022/03/31 03:37:43;;;;;;;29.98;7.20;;;;;;;13.31;43.31;93803.91;5057795;28;20459;-81
2022/03/31 03:40:10;;;;;;;25.60;6.70;;;;;;;13.29;43.23;93798.97;5033721;28;20039;-78
2022/03/31 03:42:38;;;;;;;38.70;6.85;;;;;;;13.32;43.37;93800.25;5049657;28;20033;-80
2022/03/31 03:45:04;;;;;;;16.23;6.55;;;;;;;13.32;43.30;93798.44;5059153;28;20029;-80
2022/03/31 03:47:30;;;;;;;24.05;7.05;;;;;;;13.32;43.02;93800.25;5044094;28;20040;-79
2022/03/31 03:49:55;;;;;;;47.00;17.52;;;;;;;13.11;43.70;93797.00;5063321;28;20108;-79
2022/03/31 03:52:21;;;;;;;41.20;13.32;;;;;;;12.70;44.53;93776.38;5055882;28;20021;-78
2022/03/31 03:54:46;;;;;;;28.00;6.50;;;;;;;12.45;45.40;93785.09;5058527;28;20040;-79
2022/03/31 03:57:12;;;;;;;33.30;7.35;;;;;;;12.57;45.02;93793.41;5044158;28;20037;-80
2022/03/31 03:59:38;;;;;;;20.15;7.28;;;;;;;12.55;45.21;93799.94;5004083;28;20087;-80
2022/03/31 04:02:04;;;;;;;34.40;8.63;;;;;;;12.66;44.67;93795.44;5020806;28;20029;-80
2022/03/31 04:04:32;;;;;;;26.75;8.07;;;;;;;12.69;44.75;93800.09;5020402;28;20465;-80
2022/03/31 04:06:57;;;;;;;30.45;6.70;;;;;;;12.64;44.87;93808.75;5021354;28;20098;-79
2022/03/31 04:09:23;;;;;;;17.38;6.90;;;;;;;12.75;44.75;93806.88;5037688;28;20053;-79
2022/03/31 04:11:48;;;;;;;31.08;8.63;;;;;;;12.56;45.35;93791.84;5041947;28;20032;-79
2022/03/31 04:14:14;;;;;;;22.10;7.10;;;;;;;12.48;45.71;93808.03;5046823;28;20033;-80
2022/03/31 04:16:40;;;;;;;37.40;7.10;;;;;;;12.44;45.69;93819.28;5045156;28;20124;-80
2022/03/31 04:19:08;;;;;;;32.10;7.25;;;;;;;12.56;45.43;93815.31;5032348;28;20059;-79
2022/03/31 04:21:35;;;;;;;22.15;7.43;;;;;;;12.42;45.73;93810.94;5045544;28;20101;-79
2022/03/31 04:24:01;;;;;;;31.70;7.50;;;;;;;12.49;45.26;93827.06;5029303;28;20447;-79
2022/03/31 04:26:26;;;;;;;23.00;7.07;;;;;;;12.58;45.12;93825.47;5031261;28;20104;-79
2022/03/31 04:28:52;;;;;;;12.82;6.43;;;;;;;12.63;45.30;93807.97;5050086;28;20066;-79
2022/03/31 04:31:17;;;;;;;24.65;7.53;;;;;;;12.53;45.67;93817.69;5047381;28;20037;-79
2022/03/31 04:33:43;;;;;;;34.13;7.13;;;;;;;12.45;45.86;93826.06;5040984;28;20043;-80
2022/03/31 04:36:08;;;;;;;35.60;7.13;;;;;;;12.46;45.64;93823.16;5057521;28;20480;-79
2022/03/31 04:38:34;;;;;;;27.50;8.27;;;;;;;12.49;45.43;93833.06;5040412;28;20044;-80
2022/03/31 04:40:59;;;;;;;31.80;6.65;;;;;;;12.52;45.52;93837.75;5040449;28;20044;-80
2022/03/31 04:43:25;;;;;;;21.98;6.90;;;;;;;12.66;45.10;93837.16;5053253;28;20493;-80
2022/03/31 04:45:50;;;;;;;27.20;7.28;;;;;;;12.70;45.01;93818.13;5037662;28;20033;-80
2022/03/31 04:48:16;;;;;;;28.60;8.13;;;;;;;12.78;45.27;93819.38;5039603;28;20109;-80
2022/03/31 04:50:42;;;;;;;20.70;7.90;;;;;;;12.91;44.72;93824.78;5056195;28;20034;-79
2022/03/31 04:53:08;;;;;;;38.50;7.97;;;;;;;13.09;44.96;93840.84;5045287;28;20029;-79
2022/03/31 04:55:34;;;;;;;31.48;8.73;;;;;;;13.05;44.77;93827.56;5061156;28;20562;-80
2022/03/31 04:58:00;;;;;;;20.00;6.30;;;;;;;13.19;44.38;93831.16;5041102;28;20049;-80
2022/03/31 05:00:25;;;;;;;37.13;6.85;;;;;;;13.23;43.86;93831.41;5038038;28;20033;-79
2022/03/31 05:02:51;;;;;;;24.95;7.55;;;;;;;13.26;44.16;93835.28;5019956;28;20033;-80
2022/03/31 05:05:16;;;;;;;22.58;7.10;;;;;;;13.14;43.97;93833.75;5038073;28;20026;-80
2022/03/31 05:07:42;;;;;;;23.48;6.60;;;;;;;12.72;45.50;93804.81;5060153;28;20044;-79
2022/03/31 05:10:08;;;;;;;23.90;8.10;;;;;;;12.57;45.93;93803.84;5028093;28;20041;-79
2022/03/31 05:12:34;;;;;;;38.22;7.72;;;;;;;12.18;47.07;93811.53;5035983;28;20036;-79
2022/03/31 05:14:59;;;;;;;27.50;8.18;;;;;;;12.26;47.20;93797.19;5037103;28;20052;-80
2022/03/31 05:17:27;;;;;;;40.90;8.85;;;;;;;12.30;47.21;93787.78;5053213;28;20030;-80
2022/03/31 05:19:52;;;;;;;37.20;8.27;;;;;;;12.14;47.73;93796.69;5039032;28;20401;-80
2022/03/31 05:22:18;;;;;;;30.58;9.45;;;;;;;12.14;47.50;93809.72;5054270;28;20032;-82
2022/03/31 05:24:43;;;;;;;33.40;8.77;;;;;;;12.35;47.44;93821.63;5044235;28;20040;-80
2022/03/31 05:27:09;;;;;;;39.03;8.23;;;;;;;12.54;47.38;93830.44;5003520;28;20041;-80
2022/03/31 05:29:35;;;;;;;37.78;8.00;;;;;;;12.75;46.82;93827.75;5074047;28;20033;-80
2022/03/31 05:32:00;;;;;;;33.85;8.45;;;;;;;12.88;46.90;93851.41;5004234;28;20025;-80
2022/03/31 05:34:26;;;;;;;46.72;7.97;;;;;;;13.05;46.64;93861.50;5018906;28;20386;-80
2022/03/31 05:36:52;;;;;;;35.80;9.93;;;;;;;13.24;46.66;93873.94;5035379;28;20039;-80
2022/03/31 05:39:17;;;;;;;28.25;8.32;;;;;;;13.14;45.57;93851.25;5018200;28;20116;-80
2022/03/31 05:41:43;;;;;;;25.98;8.20;;;;;;;12.96;46.74;93857.88;5035128;28;20059;-79
2022/03/31 05:44:08;;;;;;;37.03;7.15;;;;;;;12.89;46.57;93852.97;5035475;28;20034;-79
2022/03/31 05:46:34;;;;;;;34.85;8.57;;;;;;;12.80;47.78;93856.41;5036047;28;20079;-78
2022/03/31 05:48:59;;;;;;;38.00;8.32;;;;;;;12.80;47.08;93856.41;5034323;28;20033;-78
2022/03/31 05:51:25;;;;;;;46.50;8.25;;;;;;;12.80;47.29;93853.78;5016118;28;20036;-78
2022/03/31 05:53:50;;;;;;;45.33;8.18;;;;;;;12.70;47.50;93840.81;5036578;28;20021;-78
2022/03/31 05:56:16;;;;;;;38.38;8.32;;;;;;;12.46;48.75;93838.81;5061901;28;20040;-78
2022/03/31 05:58:41;;;;;;;50.08;9.82;;;;;;;12.48;48.77;93826.28;5036654;28;20037;-78
2022/03/31 06:01:07;;;;;;;26.80;7.47;;;;;;;12.64;48.51;93824.41;5037276;28;20029;-78
2022/03/31 06:03:32;;;;;;;30.80;10.00;;;;;;;12.72;48.97;93810.03;5052680;28;20025;-78
2022/03/31 06:05:58;;;;;;;53.50;8.23;;;;;;;12.78;49.64;93807.13;5046966;28;20045;-78
2022/03/31 06:08:25;;;;;;;44.55;8.93;;;;;;;12.98;49.64;93793.16;5035820;28;20026;-78
2022/03/31 06:10:50;;;;;;;41.25;8.60;;;;;;;13.09;49.25;93789.44;5068153;28;20029;-78
2022/03/31 06:13:16;;;;;;;44.75;7.43;;;;;;;13.35;50.30;93791.91;5057378;28;20058;-78
2022/03/31 06:15:41;;;;;;;50.17;7.55;;;;;;;13.58;49.67;93770.28;5059435;28;20040;-78
2022/03/31 06:20:41;;;;;;;50.17;15.27;;;;;;;14.05;49.76;93760.94;5208776;22;20413;-78
2022/03/31 06:23:07;;;;;;;48.08;17.92;;;;;;;14.26;49.49;93769.31;5053191;28;20083;-77
2022/03/31 06:25:32;;;;;;;64.22;17.92;;;;;;;14.41;49.57;93790.81;5033944;28;20030;-76
2022/03/31 06:27:57;;;;;;;52.00;15.90;;;;;;;14.53;48.04;93805.38;5031392;28;20037;-76
2022/03/31 06:30:23;;;;;;;52.65;11.02;;;;;;;14.59;47.16;93822.56;5031195;28;20025;-77
2022/03/31 06:32:49;;;;;;;41.17;10.13;;;;;;;14.68;46.57;93833.97;5013780;28;20116;-77
2022/03/31 06:35:15;;;;;;;46.83;9.52;;;;;;;14.73;46.01;93833.91;5030049;28;20418;-78
2022/03/31 06:37:46;;;;;;;44.85;9.48;;;;;;;14.75;45.96;93839.63;4996833;28;20026;-77
2022/03/31 06:40:13;;;;;;;29.88;9.55;;;;;;;14.62;46.21;93862.03;5030135;28;20458;-77
2022/03/31 06:42:40;;;;;;;38.88;9.90;;;;;;;14.47;46.93;93859.56;4996285;28;20447;-77
2022/03/31 06:45:08;;;;;;;56.97;11.35;;;;;;;14.34;46.84;93863.63;4992846;28;20065;-77
2022/03/31 06:47:35;;;;;;;42.50;10.52;;;;;;;14.25;47.69;93857.44;4993471;28;20029;-77
2022/03/31 06:50:01;;;;;;;49.65;9.80;;;;;;;14.24;47.53;93850.66;4992728;28;20033;-77
2022/03/31 06:52:26;;;;;;;42.30;9.95;;;;;;;14.22;47.65;93844.91;5010132;28;20037;-77
2022/03/31 06:54:51;;;;;;;38.92;9.70;;;;;;;14.14;48.50;93829.81;5031856;28;20029;-77
2022/03/31 06:57:17;;;;;;;48.70;9.10;;;;;;;14.04;48.77;93833.34;5014077;28;20032;-77
2022/03/31 06:59:43;;;;;;;42.15;10.15;;;;;;;13.89;49.97;93827.47;5014033;28;20378;-76
2022/03/31 07:02:08;;;;;;;45.03;10.00;;;;;;;13.62;51.18;93831.34;5030368;28;20033;-77
2022/03/31 07:04:34;;;;;;;36.05;9.95;;;;;;;13.51;51.39;93830.69;5023844;28;20064;-77
2022/03/31 07:06:59;;;;;;;42.40;9.98;;;;;;;13.45;51.95;93825.75;5001414;28;20026;-76
2022/03/31 07:09:25;;;;;;;33.05;9.75;;;;;;;13.44;52.37;93832.03;5018371;28;20493;-79
2022/03/31 07:11:50;;;;;;;42.28;10.57;;;;;;;13.16;53.75;93823.84;4994481;28;20117;-79
2022/03/31 07:14:16;;;;;;;32.40;10.07;;;;;;;12.91;54.71;93824.00;4997428;28;20030;-79
2022/03/31 07:16:42;;;;;;;40.03;11.52;;;;;;;13.04;54.86;93812.97;4995923;28;20061;-79
2022/03/31 07:19:07;;;;;;;47.10;13.60;;;;;;;13.16;54.68;93816.00;4999315;28;20037;-81
2022/03/31 07:21:33;;;;;;;47.83;12.90;;;;;;;13.26;54.11;93819.63;5015010;28;20022;-81
2022/03/31 07:24:00;;;;;;;53.50;12.63;;;;;;;13.49;53.54;93813.69;5020617;28;20045;-80
2022/03/31 07:26:25;;;;;;;55.20;13.32;;;;;;;13.71;52.94;93801.00;4996536;28;20122;-81
2022/03/31 07:28:51;;;;;;;60.95;12.52;;;;;;;13.87;52.82;93793.78;5017490;28;20042;-81
2022/03/31 07:31:16;;;;;;;58.17;11.85;;;;;;;14.05;51.84;93797.53;5001135;28;20056;-81
2022/03/31 07:33:42;;;;;;;55.83;11.23;;;;;;;14.27;51.33;93823.16;5005659;28;20030;-78
2022/03/31 07:36:07;;;;;;;54.72;12.27;;;;;;;14.39;51.23;93832.19;4998545;28;20042;-82
2022/03/31 07:38:33;;;;;;;63.83;11.52;;;;;;;14.50;50.73;93800.72;4997873;28;20441;-80
2022/03/31 07:40:59;;;;;;;54.53;9.45;;;;;;;14.46;51.14;93789.22;4980945;28;20050;-80
2022/03/31 07:43:25;;;;;;;66.78;10.88;;;;;;;14.42;50.68;93815.94;5015360;28;20033;-81
2022/03/31 07:45:51;;;;;;;59.97;11.73;;;;;;;14.35;51.64;93807.66;5020201;28;20055;-79
2022/03/31 07:48:18;;;;;;;46.53;10.18;;;;;;;14.40;51.26;93832.97;5026158;28;20034;-80
2022/03/31 07:50:44;;;;;;;65.72;11.40;;;;;;;14.61;51.31;93823.06;5050553;28;20036;-81
2022/03/31 07:53:10;;;;;;;44.65;10.32;;;;;;;14.68;50.75;93813.81;5023892;28;20060;-82
2022/03/31 07:55:36;;;;;;;40.88;10.13;;;;;;;14.72;50.68;93824.50;5019396;28;20029;-81
2022/03/31 07:58:02;;;;;;;51.78;10.50;;;;;;;14.54;50.88;93823.41;5020447;28;20068;-80
2022/03/31 08:00:28;;;;;;;52.80;11.85;;;;;;;14.33;51.51;93796.69;5045309;28;20029;-81
2022/03/31 08:02:53;;;;;;;38.90;10.18;;;;;;;14.33;51.70;93815.00;5017615;28;20107;-80
2022/03/31 08:05:22;;;;;;;47.28;10.10;;;;;;;14.47;51.30;93809.88;5004319;28;20034;-81
2022/03/31 08:07:48;;;;;;;43.75;10.32;;;;;;;14.58;51.01;93798.25;5004343;28;20033;-81
2022/03/31 08:10:14;;;;;;;37.72;10.35;;;;;;;14.68;50.47;93799.97;5024886;28;20041;-81
2022/03/31 08:12:40;;;;;;;52.83;9.77;;;;;;;14.70;50.04;93795.22;5019810;28;20113;-80
2022/03/31 08:15:07;;;;;;;47.88;9.48;;;;;;;14.93;49.73;93762.19;4988476;28;20034;-82
2022/03/31 08:17:33;;;;;;;35.78;9.35;;;;;;;15.11;49.20;93820.81;5015958;28;20053;-82
2022/03/31 08:19:58;;;;;;;46.30;11.23;;;;;;;15.26;49.12;93792.56;4999755;28;20037;-82
2022/03/31 08:22:26;;;;;;;52.55;9.55;;;;;;;15.19;48.11;93784.31;4983921;28;20037;-82
2022/03/31 08:24:52;;;;;;;45.28;8.88;;;;;;;15.17;48.10;93793.53;5004517;28;20065;-81
2022/03/31 08:27:20;;;;;;;56.70;8.75;;;;;;;15.23;47.68;93789.75;4999966;28;20102;-79
2022/03/31 08:29:46;;;;;;;43.30;8.57;;;;;;;15.42;46.91;93785.25;4998889;28;20038;-77
2022/03/31 08:32:12;;;;;;;57.33;8.13;;;;;;;15.37;47.03;93764.41;5013317;28;20037;-77
2022/03/31 08:34:38;;;;;;;46.85;8.80;;;;;;;15.21;47.76;93794.50;5013271;28;20044;-77
2022/03/31 08:37:04;;;;;;;55.78;8.48;;;;;;;15.27;47.10;93752.22;5011672;28;20046;-76
2022/03/31 08:39:29;;;;;;;50.53;8.45;;;;;;;15.32;47.43;93788.84;5019329;28;20044;-77
2022/03/31 08:41:54;;;;;;;54.25;9.27;;;;;;;15.48;47.12;93731.75;5034729;28;20040;-77
2022/03/31 08:44:21;;;;;;;56.80;9.68;;;;;;;15.54;46.68;93748.91;5003967;28;20038;-77
2022/03/31 08:46:46;;;;;;;47.38;9.20;;;;;;;15.71;46.26;93761.50;5009881;28;20069;-77
2022/03/31 08:49:12;;;;;;;57.00;8.40;;;;;;;15.78;45.95;93753.25;5013297;28;20033;-77
2022/03/31 08:51:38;;;;;;;45.75;7.60;;;;;;;15.91;45.23;93739.38;5017871;28;20021;-76
2022/03/31 08:54:05;;;;;;;51.20;6.85;;;;;;;16.06;45.17;93741.72;5010479;28;20026;-76
2022/03/31 08:56:30;;;;;;;53.70;7.70;;;;;;;16.26;44.84;93760.75;5006450;28;20029;-78
2022/03/31 08:58:55;;;;;;;49.35;9.35;;;;;;;16.46;44.58;93744.63;5012130;28;20460;-77
2022/03/31 09:01:21;;;;;;;42.72;8.75;;;;;;;16.48;44.64;93751.13;5022411;28;20511;-76
2022/03/31 09:03:46;;;;;;;46.30;8.25;;;;;;;16.64;44.29;93759.47;5014037;28;20084;-76
2022/03/31 09:06:26;;;;;;;50.75;8.85;;;;;;;16.85;43.98;93756.41;5019729;28;20069;-76
2022/03/31 09:08:59;;;;;;;38.15;8.45;;;;;;;17.03;43.13;93752.84;5001823;28;20054;-75
2022/03/31 09:11:31;;;;;;;62.20;10.00;;;;;;;17.21;42.29;93744.03;5002714;28;20033;-76
2022/03/31 09:13:58;;;;;;;65.60;8.35;;;;;;;17.27;42.04;93749.97;5023528;28;20036;-76
2022/03/31 09:16:37;;;;;;;39.50;7.60;;;;;;;17.28;41.81;93736.53;5003870;28;20043;-76
2022/03/31 09:19:10;;;;;;;53.63;7.80;;;;;;;17.41;41.74;93742.78;5024533;28;20044;-75
2022/03/31 09:21:48;;;;;;;46.67;8.55;;;;;;;17.49;41.58;93746.53;5021686;28;20056;-76
2022/03/31 09:24:17;;;;;;;55.20;9.70;;;;;;;17.48;41.78;93763.38;5022166;28;20087;-76
2022/03/31 09:26:46;;;;;;;66.68;8.68;;;;;;;17.59;41.27;93743.66;4987545;28;20052;-75
2022/03/31 09:29:12;;;;;;;37.90;8.02;;;;;;;17.67;41.25;93732.41;4987838;28;20057;-75
2022/03/31 09:31:38;;;;;;;54.30;6.97;;;;;;;17.81;41.04;93746.28;5026074;28;20091;-76
2022/03/31 09:34:03;;;;;;;54.72;7.70;;;;;;;17.84;40.47;93737.00;5015251;28;20033;-75
2022/03/31 09:36:29;;;;;;;57.58;7.72;;;;;;;17.87;40.97;93737.16;4964442;28;20099;-77
2022/03/31 09:38:56;;;;;;;40.80;6.72;;;;;;;18.05;40.65;93724.84;4995155;28;20078;-75
2022/03/31 09:41:40;;;;;;;48.53;7.50;;;;;;;18.34;39.95;93716.44;5017947;28;20107;-75
2022/03/31 09:44:08;;;;;;;40.53;7.32;;;;;;;18.58;40.20;93695.72;5001345;28;20112;-76
2022/03/31 09:46:35;;;;;;;53.33;7.15;;;;;;;18.84;39.59;93713.41;4996486;28;20096;-76
2022/03/31 09:49:15;;;;;;;38.97;6.85;;;;;;;19.05;38.66;93709.09;5015364;28;20033;-76
2022/03/31 09:51:55;;;;;;;35.00;7.07;;;;;;;19.13;37.85;93704.88;5012685;28;20044;-79
2022/03/31 09:54:26;;;;;;;40.50;7.28;;;;;;;19.16;38.21;93712.16;4983432;28;20034;-77
2022/03/31 09:56:52;;;;;;;39.38;7.38;;;;;;;19.09;37.89;93704.75;4978914;28;20034;-78
2022/03/31 09:59:18;;;;;;;33.38;6.70;;;;;;;18.98;38.75;93703.50;4980675;28;20026;-80
2022/03/31 10:01:44;;;;;;;40.15;5.80;;;;;;;19.17;38.65;93714.50;4997039;28;20042;-77
2022/03/31 10:04:11;;;;;;;40.15;7.35;;;;;;;19.34;37.44;93702.38;5011444;28;20034;-77
2022/03/31 10:06:38;;;;;;;50.92;7.30;;;;;;;19.47;37.49;93710.09;4977328;28;20038;-77
2022/03/31 10:09:05;;;;;;;57.78;8.75;;;;;;;19.33;37.48;93692.91;4977532;28;20034;-76
2022/03/31 10:11:32;;;;;;;42.80;7.03;;;;;;;19.44;37.57;93723.16;4977244;28;20528;-77
2022/03/31 10:14:17;;;;;;;51.30;6.95;;;;;;;19.72;37.02;93715.66;4994143;28;20452;-77
2022/03/31 10:16:50;;;;;;;43.85;7.25;;;;;;;19.92;36.79;93656.16;5011708;28;20034;-78
2022/03/31 10:19:26;;;;;;;59.60;7.43;;;;;;;19.89;36.66;93689.22;4963216;28;20033;-77
2022/03/31 10:22:02;;;;;;;47.85;8.73;;;;;;;19.89;37.37;93688.44;4982502;28;20084;-77
2022/03/31 10:24:44;;;;;;;63.63;8.63;;;;;;;19.87;36.58;93682.72;5009720;28;20044;-76
2022/03/31 10:27:14;;;;;;;46.55;8.35;;;;;;;19.63;37.38;93680.63;5010497;28;20034;-77
2022/03/31 10:29:45;;;;;;;42.00;7.20;;;;;;;19.52;37.61;93680.16;4993936;28;20033;-76
2022/03/31 10:32:37;;;;;;;43.10;8.45;;;;;;;19.51;38.22;93662.78;5013349;28;20029;-76
2022/03/31 10:35:03;;;;;;;59.75;8.77;;;;;;;19.46;38.24;93658.47;5028433;28;20052;-76
2022/03/31 10:37:34;;;;;;;52.78;8.43;;;;;;;19.42;38.32;93672.59;4996642;28;20041;-77
2022/03/31 10:40:00;;;;;;;50.83;7.47;;;;;;;19.50;38.36;93671.78;5031933;28;20112;-77
2022/03/31 10:42:25;;;;;;;55.83;8.63;;;;;;;19.64;38.53;93661.06;5013193;28;20888;-76
2022/03/31 10:45:05;;;;;;;43.78;7.35;;;;;;;19.65;38.07;93667.88;5001573;28;20836;-77
2022/03/31 10:47:32;;;;;;;41.10;7.78;;;;;;;19.65;38.15;93647.56;5013677;28;20053;-76
2022/03/31 10:49:57;;;;;;;61.28;8.43;;;;;;;19.58;38.25;93636.75;5081518;22;20062;-76
2022/03/31 10:52:23;;;;;;;63.08;8.10;;;;;;;19.61;38.17;93630.06;5033171;28;20492;-78
2022/03/31 10:54:50;;;;;;;48.72;8.35;;;;;;;19.57;38.30;93624.66;5024428;28;20044;-77
2022/03/31 10:57:17;;;;;;;43.92;7.72;;;;;;;19.58;38.17;93638.63;5054191;28;20028;-77
2022/03/31 10:59:47;;;;;;;57.80;9.88;;;;;;;19.65;38.17;93642.28;5031937;28;20503;-77
2022/03/31 11:02:19;;;;;;;41.85;7.70;;;;;;;19.69;38.03;93648.50;5037432;28;20403;-77
2022/03/31 11:04:57;;;;;;;61.28;8.95;;;;;;;19.76;37.89;93643.50;5045594;28;20021;-78
2022/03/31 11:07:24;;;;;;;37.85;8.25;;;;;;;19.87;37.64;93651.06;5050825;28;20033;-78
2022/03/31 11:10:04;;;;;;;63.15;8.02;;;;;;;20.04;37.43;93654.38;5042293;28;20069;-77
2022/03/31 11:12:30;;;;;;;39.45;6.47;;;;;;;20.13;37.18;93638.50;5030912;28;20404;-78
2022/03/31 11:14:57;;;;;;;47.50;7.25;;;;;;;20.14;36.88;93595.16;5028877;28;20037;-77
2022/03/31 11:17:23;;;;;;;62.05;7.35;;;;;;;20.04;37.11;93641.19;5030847;28;20500;-76
2022/03/31 11:19:49;;;;;;;40.42;7.22;;;;;;;20.05;36.93;93624.25;5024752;28;20033;-77
2022/03/31 11:22:19;;;;;;;40.30;7.90;;;;;;;20.04;36.77;93614.03;5044139;28;20045;-77
2022/03/31 11:24:45;;;;;;;45.65;9.63;;;;;;;19.97;36.98;93633.00;5036215;22;20021;-77
2022/03/31 11:27:10;;;;;;;34.70;7.15;;;;;;;19.92;36.99;93640.31;5048556;28;20060;-76